Luiz Alves, Brazil
Current Conditions -  °F | °C
As of 5:00 AM on Monday 20 Oct 2014 (Local Time) from SBNF Reporting Station
Broken Clouds Broken Clouds  
Wind Chill: 68°   Ceiling: 4500
Heat Index: 68°   Visibility: 6mi
Dew Point: 64°   Wind: 6mph
Humidity: 88%   Direction: 250°WSW
Pressure: 29.94"   Gusts: NA
Location:  26.72°S, 48.93°W
Report Text: SBNF 200800Z 25005KT 9999 BKN045 20/18 Q1014
Loading
Personal Weather Stations






























Interactive Weather Map
Tropical Storm Tracking
New forecast layout! Learn more

10-Day Weather Forecast

Advertisements
Track Severe Weather on mobile